Time;durP1;ratioP1;P1;durP2;ratioP2;P2;SDS_P1;SDS_P2;PMS_P1;PMS_P2;Temp;Humidity;BMP_temperature;BMP_pressure;BME280_temperature;BME280_humidity;BME280_pressure;Samples;Min_cycle;Max_cycle;Signal;HPM_P1;HPM_P2
2023/04/19 00:00:44;;;;;;;4.70;2.03;;;;;;;10.30;56.92;102672.31;6275123;28;20052;-80
2023/04/19 00:03:46;;;;;;;3.22;2.30;;;;;;;10.34;57.67;102667.88;6275301;28;20061;-80
2023/04/19 00:06:47;;;;;;;6.35;2.45;;;;;;;10.29;58.51;102659.22;6274808;28;20060;-80
2023/04/19 00:09:48;;;;;;;4.47;2.13;;;;;;;10.24;57.53;102658.44;6274825;28;20064;-80
2023/04/19 00:12:50;;;;;;;4.70;2.00;;;;;;;10.13;57.56;102661.28;6275016;28;20052;-80
2023/04/19 00:15:52;;;;;;;4.35;2.30;;;;;;;10.09;55.63;102660.47;6274916;28;20044;-80
2023/04/19 00:18:54;;;;;;;5.72;2.47;;;;;;;9.97;57.02;102659.84;6274691;28;20056;-80
2023/04/19 00:21:55;;;;;;;5.72;1.80;;;;;;;9.86;53.54;102657.47;6274920;28;20052;-80
2023/04/19 00:24:57;;;;;;;2.63;1.70;;;;;;;9.88;54.34;102666.16;6278966;28;20049;-80
2023/04/19 00:27:58;;;;;;;3.05;1.70;;;;;;;9.79;53.23;102661.09;6279720;28;20049;-80
2023/04/19 00:31:01;;;;;;;3.20;1.98;;;;;;;9.63;53.20;102658.75;6279569;28;20056;-80
2023/04/19 00:34:02;;;;;;;3.05;1.83;;;;;;;9.37;53.50;102666.22;6279005;28;20060;-80
2023/04/19 00:37:04;;;;;;;2.47;1.48;;;;;;;9.31;54.31;102655.81;6278264;28;20076;-80
2023/04/19 00:40:06;;;;;;;3.03;1.42;;;;;;;9.25;53.18;102664.69;6279090;28;20361;-80
2023/04/19 00:43:08;;;;;;;3.40;1.88;;;;;;;9.08;54.36;102657.13;6279351;28;20056;-79
2023/04/19 00:46:11;;;;;;;1.92;1.40;;;;;;;9.14;55.25;102661.38;6278954;28;20063;-80
2023/04/19 00:49:12;;;;;;;2.47;1.48;;;;;;;8.99;54.06;102661.59;6279207;28;20052;-80
2023/04/19 00:52:14;;;;;;;5.97;1.50;;;;;;;8.87;53.97;102662.69;6279095;28;20041;-80
2023/04/19 00:55:15;;;;;;;4.10;1.42;;;;;;;8.62;54.09;102667.41;6278772;28;20349;-80
2023/04/19 00:58:17;;;;;;;2.20;1.52;;;;;;;8.61;55.51;102661.31;6278698;28;20076;-80
2023/04/19 01:01:20;;;;;;;3.28;2.10;;;;;;;8.59;55.16;102660.47;6279006;28;20126;-80
2023/04/19 01:04:22;;;;;;;2.78;1.42;;;;;;;8.65;57.03;102670.00;6277790;28;20350;-80
2023/04/19 01:07:23;;;;;;;2.92;1.38;;;;;;;8.55;56.91;102669.28;6278990;28;20076;-80
2023/04/19 01:10:25;;;;;;;3.85;2.13;;;;;;;8.64;56.64;102665.66;6278766;28;20060;-80
2023/04/19 01:13:26;;;;;;;3.08;1.30;;;;;;;8.57;57.13;102662.22;6278304;28;20056;-80
2023/04/19 01:16:29;;;;;;;4.32;1.20;;;;;;;8.69;56.32;102670.84;6278527;28;20384;-80
2023/04/19 01:19:30;;;;;;;5.57;1.30;;;;;;;8.56;56.70;102670.13;6278307;28;20064;-80
2023/04/19 01:22:33;;;;;;;2.92;1.65;;;;;;;8.53;56.82;102663.16;6278448;28;20056;-83
2023/04/19 01:25:36;;;;;;;5.63;1.67;;;;;;;8.43;58.45;102661.56;6278012;28;20131;-80
2023/04/19 01:28:37;;;;;;;2.95;1.38;;;;;;;8.28;58.68;102670.47;6278371;28;20079;-80
2023/04/19 01:31:39;;;;;;;1.90;1.20;;;;;;;8.38;58.13;102669.50;6278259;28;20045;-80
2023/04/19 01:34:41;;;;;;;3.95;1.52;;;;;;;8.24;58.45;102662.66;6276613;28;20365;-80
2023/04/19 01:37:44;;;;;;;3.42;1.23;;;;;;;8.21;59.02;102673.19;6277853;28;20088;-80
2023/04/19 01:40:45;;;;;;;3.85;1.70;;;;;;;7.97;59.41;102675.22;6278191;28;20041;-80
2023/04/19 01:43:46;;;;;;;4.88;1.33;;;;;;;7.89;59.98;102663.94;6277857;28;20049;-80
2023/04/19 01:46:48;;;;;;;4.35;1.17;;;;;;;7.98;59.95;102670.84;6277655;28;20049;-80
2023/04/19 01:49:49;;;;;;;7.90;1.42;;;;;;;7.87;60.55;102669.22;6278016;28;20049;-80
2023/04/19 01:52:52;;;;;;;2.42;1.33;;;;;;;7.92;60.21;102661.31;6277638;28;20060;-80
2023/04/19 01:55:54;;;;;;;4.40;1.88;;;;;;;7.99;60.80;102672.56;6277488;28;20056;-80
2023/04/19 01:58:55;;;;;;;2.50;1.40;;;;;;;7.98;61.44;102666.47;6277313;28;20045;-79
2023/04/19 02:01:57;;;;;;;3.35;1.30;;;;;;;7.93;61.96;102668.28;6277627;28;20048;-80
2023/04/19 02:04:58;;;;;;;2.33;1.33;;;;;;;7.92;62.29;102660.44;6277015;28;20053;-80
2023/04/19 02:08:01;;;;;;;1.35;1.25;;;;;;;7.93;62.11;102665.66;6277485;28;20053;-80
2023/04/19 02:11:06;;;;;;;2.03;1.20;;;;;;;7.81;62.29;102656.22;6277150;28;20365;-79
2023/04/19 02:14:08;;;;;;;1.90;1.10;;;;;;;7.78;62.28;102657.97;6277748;28;20060;-79
2023/04/19 02:17:09;;;;;;;1.73;1.20;;;;;;;7.73;62.18;102655.41;6277172;28;20053;-80
2023/04/19 02:20:10;;;;;;;1.83;1.05;;;;;;;7.60;62.84;102661.66;6276820;28;20072;-80
2023/04/19 02:23:13;;;;;;;2.40;1.23;;;;;;;7.64;63.90;102650.28;6277188;28;20056;-80
2023/04/19 02:26:15;;;;;;;3.05;1.30;;;;;;;7.72;63.81;102650.19;6276855;28;20361;-80
2023/04/19 02:29:16;;;;;;;2.55;1.20;;;;;;;7.73;63.61;102659.78;6271271;28;20438;-80
2023/04/19 02:32:18;;;;;;;3.90;1.35;;;;;;;7.68;62.65;102657.22;6270472;28;20037;-80
2023/04/19 02:35:19;;;;;;;1.67;1.10;;;;;;;7.46;64.00;102661.78;6276164;28;20057;-80
2023/04/19 02:38:22;;;;;;;3.55;1.33;;;;;;;7.47;64.56;102666.13;6276330;28;20445;-80
2023/04/19 02:41:24;;;;;;;1.38;1.10;;;;;;;7.49;64.88;102663.50;6275494;28;20045;-80
2023/04/19 02:44:26;;;;;;;2.70;1.27;;;;;;;7.43;65.32;102664.44;6276335;28;20052;-80
2023/04/19 02:47:27;;;;;;;1.85;1.30;;;;;;;7.44;65.71;102671.38;6275536;28;20132;-79
2023/04/19 02:50:29;;;;;;;1.63;1.10;;;;;;;7.33;65.56;102671.50;6275785;28;20056;-80
2023/04/19 02:53:32;;;;;;;2.92;1.23;;;;;;;7.31;66.10;102675.88;6276145;28;20131;-80
2023/04/19 02:56:33;;;;;;;1.40;1.13;;;;;;;7.21;66.82;102675.97;6275719;28;20048;-80
2023/04/19 02:59:35;;;;;;;2.15;1.20;;;;;;;7.16;67.86;102668.16;6275875;28;20049;-80
2023/04/19 03:02:36;;;;;;;2.65;1.13;;;;;;;7.02;68.30;102670.00;6276006;28;20047;-79
2023/04/19 03:05:38;;;;;;;2.55;1.42;;;;;;;6.86;66.86;102667.53;6275632;28;20045;-79
2023/04/19 03:08:40;;;;;;;2.22;1.23;;;;;;;6.97;67.73;102667.44;6275216;28;20052;-79
2023/04/19 03:11:42;;;;;;;4.63;1.83;;;;;;;7.01;68.90;102676.13;6275560;28;20040;-80
2023/04/19 03:14:43;;;;;;;3.17;1.52;;;;;;;6.89;69.83;102676.22;6275456;28;20072;-80
2023/04/19 03:17:45;;;;;;;5.40;1.55;;;;;;;6.68;67.92;102672.00;6275519;28;20045;-80
2023/04/19 03:20:46;;;;;;;7.28;1.38;;;;;;;6.62;69.46;102670.28;6275500;28;20048;-80
2023/04/19 03:23:49;;;;;;;2.28;1.30;;;;;;;6.54;70.62;102672.06;6275327;28;20060;-80
2023/04/19 03:26:50;;;;;;;5.68;1.45;;;;;;;6.50;70.14;102667.75;6274988;28;20453;-80
2023/04/19 03:29:51;;;;;;;4.55;1.33;;;;;;;6.45;71.93;102670.41;6268055;28;20598;-79
2023/04/19 03:32:53;;;;;;;3.65;1.20;;;;;;;6.45;70.15;102672.09;6257541;28;20048;-79
2023/04/19 03:35:54;;;;;;;3.10;1.33;;;;;;;6.40;70.61;102669.53;6255449;28;20049;-80
2023/04/19 03:38:57;;;;;;;2.55;1.25;;;;;;;6.46;71.16;102666.91;6255591;28;20045;-80
2023/04/19 03:41:58;;;;;;;2.38;1.20;;;;;;;6.37;70.38;102664.34;6255977;28;20045;-80
2023/04/19 03:45:00;;;;;;;2.47;1.08;;;;;;;6.36;70.60;102654.78;6257590;28;20052;-80
2023/04/19 03:48:01;;;;;;;3.25;1.25;;;;;;;6.44;71.04;102655.56;6257720;28;20447;-80
2023/04/19 03:51:03;;;;;;;2.55;1.17;;;;;;;6.44;72.09;102659.94;6256885;28;20049;-80
2023/04/19 03:54:06;;;;;;;2.25;1.33;;;;;;;6.32;71.99;102660.88;6257197;28;20141;-79
2023/04/19 03:57:07;;;;;;;1.85;1.20;;;;;;;6.36;73.15;102662.59;6256245;28;20056;-79
2023/04/19 04:00:10;;;;;;;3.88;1.23;;;;;;;6.28;72.30;102662.63;6260941;28;20090;-80
2023/04/19 04:03:11;;;;;;;3.20;1.48;;;;;;;6.16;72.65;102661.81;6262480;28;20445;-80
2023/04/19 04:06:13;;;;;;;3.10;1.75;;;;;;;6.16;72.57;102659.19;6270429;28;20045;-80
2023/04/19 04:09:16;;;;;;;3.47;1.25;;;;;;;6.14;74.10;102663.56;6272517;28;20611;-79
2023/04/19 04:12:17;;;;;;;1.60;1.15;;;;;;;6.25;74.23;102667.00;6274525;28;20056;-80
2023/04/19 04:15:18;;;;;;;4.82;1.88;;;;;;;6.10;73.34;102668.81;6274212;28;20053;-80
2023/04/19 04:18:20;;;;;;;2.28;1.23;;;;;;;6.18;74.65;102667.91;6275566;28;20045;-80
2023/04/19 04:21:23;;;;;;;1.90;1.35;;;;;;;6.03;72.68;102667.06;6267946;28;20045;-80
2023/04/19 04:24:26;;;;;;;7.65;1.95;;;;;;;6.06;75.04;102661.84;6262657;28;20643;-80
2023/04/19 04:27:28;;;;;;;3.03;1.48;;;;;;;6.13;74.03;102673.13;6263881;28;20134;-80
2023/04/19 04:30:30;;;;;;;2.38;1.40;;;;;;;6.09;72.48;102659.25;6272075;28;20060;-80
2023/04/19 04:33:31;;;;;;;3.35;1.63;;;;;;;5.99;73.46;102662.72;6279254;28;20049;-80
2023/04/19 04:36:32;;;;;;;1.52;1.10;;;;;;;5.97;74.81;102672.31;6278627;28;20049;-79
2023/04/19 04:39:38;;;;;;;2.42;1.30;;;;;;;5.99;76.04;102670.56;6279389;28;20053;-80
2023/04/19 04:42:39;;;;;;;7.38;1.58;;;;;;;6.05;75.49;102667.09;6278845;28;20048;-79
2023/04/19 04:45:43;;;;;;;3.38;1.27;;;;;;;6.07;74.72;102662.72;6279108;28;20045;-79
2023/04/19 04:48:44;;;;;;;1.67;1.00;;;;;;;6.06;75.00;102664.47;6279044;28;20055;-80
2023/04/19 04:51:46;;;;;;;1.48;0.98;;;;;;;6.07;75.53;102665.31;6279049;28;20441;-79
2023/04/19 04:54:48;;;;;;;2.58;1.20;;;;;;;6.13;75.58;102669.66;6278548;28;20048;-79
2023/04/19 04:57:50;;;;;;;4.45;1.77;;;;;;;6.08;74.91;102664.44;6278921;28;20049;-79
2023/04/19 05:00:51;;;;;;;5.75;1.40;;;;;;;6.00;75.24;102667.09;6278836;28;20053;-79
2023/04/19 05:03:52;;;;;;;4.35;1.27;;;;;;;6.05;75.31;102665.34;6278609;28;20049;-79
2023/04/19 05:06:54;;;;;;;2.58;1.52;;;;;;;5.98;73.95;102676.66;6278261;28;20055;-80
2023/04/19 05:09:57;;;;;;;2.55;1.20;;;;;;;5.92;74.89;102676.69;6278062;28;20060;-79
2023/04/19 05:12:58;;;;;;;2.20;1.20;;;;;;;5.93;75.46;102673.22;6278311;28;20041;-79
2023/04/19 05:15:59;;;;;;;2.80;1.50;;;;;;;5.97;77.04;102672.31;6278340;28;20052;-80
2023/04/19 05:19:01;;;;;;;2.47;1.70;;;;;;;5.98;76.40;102676.66;6278257;28;20052;-79
2023/04/19 05:22:02;;;;;;;6.95;4.15;;;;;;;5.98;76.64;102667.97;6278072;28;20052;-80
2023/04/19 05:25:06;;;;;;;4.35;2.20;;;;;;;6.00;76.33;102671.47;6278029;28;20049;-80
2023/04/19 05:28:08;;;;;;;3.03;1.38;;;;;;;5.93;76.85;102667.13;6277779;28;20059;-80
2023/04/19 05:31:09;;;;;;;3.78;1.60;;;;;;;6.01;76.37;102666.22;6278229;28;20044;-79
2023/04/19 05:34:10;;;;;;;2.60;1.35;;;;;;;6.07;77.26;102674.03;6277510;28;20049;-80
2023/04/19 05:37:12;;;;;;;4.18;1.50;;;;;;;6.07;76.87;102673.16;6277865;28;20057;-79
2023/04/19 05:40:15;;;;;;;4.15;2.47;;;;;;;6.04;76.24;102667.94;6277832;28;20044;-80
2023/04/19 05:43:16;;;;;;;7.90;3.60;;;;;;;6.03;76.81;102658.38;6269441;28;20052;-80
2023/04/19 05:46:17;;;;;;;5.40;2.33;;;;;;;6.00;76.42;102664.50;6277727;28;20060;-79
2023/04/19 05:49:19;;;;;;;6.95;2.30;;;;;;;6.05;77.76;102657.50;6277729;28;20048;-80
2023/04/19 05:52:20;;;;;;;6.10;2.38;;;;;;;6.05;78.03;102664.47;6277256;28;20053;-79
2023/04/19 05:55:23;;;;;;;3.95;2.05;;;;;;;6.00;78.48;102666.25;6277373;28;20053;-80
2023/04/19 05:58:25;;;;;;;2.60;1.52;;;;;;;6.01;77.52;102662.75;6277243;28;20360;-80
2023/04/19 06:01:26;;;;;;;4.18;2.42;;;;;;;5.97;77.68;102666.25;6277191;28;20353;-80
2023/04/19 06:04:28;;;;;;;3.10;1.77;;;;;;;5.85;78.04;102667.97;6277411;28;20055;-80
2023/04/19 06:07:29;;;;;;;3.30;1.60;;;;;;;5.83;79.00;102658.44;6276658;28;20049;-79
2023/04/19 06:10:32;;;;;;;2.10;1.42;;;;;;;5.84;78.79;102666.22;6276320;28;20048;-79
2023/04/19 06:13:33;;;;;;;4.47;1.58;;;;;;;5.95;78.45;102662.75;6276542;28;20044;-79
2023/04/19 06:16:35;;;;;;;5.57;1.23;;;;;;;5.98;77.58;102654.91;6275972;28;20052;-80
2023/04/19 06:19:36;;;;;;;1.80;1.23;;;;;;;5.90;78.44;102660.13;6276170;28;20070;-80
2023/04/19 06:22:42;;;;;;;3.25;1.55;;;;;;;5.98;78.35;102660.13;6275900;28;20048;-80
2023/04/19 06:25:47;;;;;;;7.15;2.35;;;;;;;5.96;77.82;102659.28;6276778;28;20045;-80
2023/04/19 06:28:48;;;;;;;4.10;1.70;;;;;;;5.98;78.49;102661.00;6276431;28;20048;-80
2023/04/19 06:31:50;;;;;;;5.93;1.40;;;;;;;5.92;80.29;102665.38;6276532;28;20049;-79
2023/04/19 06:34:51;;;;;;;3.30;1.30;;;;;;;6.12;79.42;102655.72;6276693;28;20053;-80
2023/04/19 06:37:52;;;;;;;5.03;1.40;;;;;;;6.34;79.48;102662.59;6276266;28;20057;-80
2023/04/19 06:40:55;;;;;;;3.70;1.25;;;;;;;6.25;77.95;102656.56;6275859;28;20049;-80
2023/04/19 06:43:57;;;;;;;1.60;1.20;;;;;;;6.45;77.89;102659.06;6276456;28;20049;-80
2023/04/19 06:46:58;;;;;;;6.13;2.00;;;;;;;6.63;77.40;102656.34;6276197;28;20049;-79
2023/04/19 06:49:59;;;;;;;3.10;1.52;;;;;;;6.55;76.93;102658.16;6275628;28;20048;-80
2023/04/19 06:53:01;;;;;;;11.43;2.38;;;;;;;6.59;76.46;102665.09;6275810;28;20076;-80
2023/04/19 06:56:05;;;;;;;1.65;1.15;;;;;;;6.67;78.24;102654.56;6275945;28;20410;-80
2023/04/19 06:59:06;;;;;;;5.45;2.05;;;;;;;6.75;78.08;102655.41;6275765;28;20056;-80
2023/04/19 07:02:07;;;;;;;2.97;1.63;;;;;;;6.80;77.85;102653.63;6275465;28;20049;-80
2023/04/19 07:05:11;;;;;;;2.53;1.48;;;;;;;6.86;76.01;102656.22;6275751;28;20049;-80
2023/04/19 07:08:13;;;;;;;5.07;1.77;;;;;;;6.89;77.21;102645.72;6275539;28;20063;-80
2023/04/19 07:11:15;;;;;;;8.48;2.65;;;;;;;7.03;76.72;102648.22;6275640;28;20460;-80
2023/04/19 07:14:18;;;;;;;8.82;2.35;;;;;;;7.11;75.91;102644.66;6267728;28;20048;-80
2023/04/19 07:17:19;;;;;;;3.65;1.73;;;;;;;7.08;75.48;102634.22;6275439;28;20496;-80
2023/04/19 07:20:21;;;;;;;2.47;1.15;;;;;;;7.23;76.09;102632.38;6275649;28;20045;-79
2023/04/19 07:23:22;;;;;;;2.33;1.58;;;;;;;7.32;75.31;102627.94;6275129;28;20049;-80
2023/04/19 07:26:25;;;;;;;4.90;1.25;;;;;;;7.51;74.04;102644.31;6275174;28;20048;-80
2023/04/19 07:29:27;;;;;;;6.65;1.20;;;;;;;7.45;73.75;102639.16;6275098;28;20354;-79
2023/04/19 07:32:28;;;;;;;7.00;1.40;;;;;;;7.42;73.79;102625.22;6267476;28;20448;-80
2023/04/19 07:35:29;;;;;;;1.95;1.23;;;;;;;7.46;73.36;102619.94;6255704;28;20454;-80
2023/04/19 07:38:31;;;;;;;2.10;1.40;;;;;;;7.61;75.55;102626.75;6274455;28;20049;-79
2023/04/19 07:41:34;;;;;;;3.47;1.55;;;;;;;7.61;73.22;102616.28;6272166;28;20049;-79
2023/04/19 07:44:36;;;;;;;2.70;1.20;;;;;;;7.67;72.45;102612.72;6273375;28;20041;-79
2023/04/19 07:47:37;;;;;;;3.83;1.15;;;;;;;7.76;73.13;102612.63;6274787;28;20049;-80
2023/04/19 07:50:38;;;;;;;1.77;1.00;;;;;;;7.84;71.69;102606.41;6270004;28;20048;-79
2023/04/19 07:53:41;;;;;;;1.85;1.27;;;;;;;7.93;72.55;102604.59;6274773;28;20045;-79
2023/04/19 07:56:44;;;;;;;2.40;1.13;;;;;;;8.01;73.08;102597.50;6273629;28;20091;-79
2023/04/19 07:59:45;;;;;;;1.83;1.27;;;;;;;8.09;72.12;102601.75;6274964;28;20052;-79
2023/04/19 08:02:48;;;;;;;2.45;0.93;;;;;;;8.19;70.94;102588.53;6274567;28;20045;-80
2023/04/19 08:05:49;;;;;;;4.75;1.25;;;;;;;8.24;69.47;102578.84;6274845;28;20060;-80
2023/04/19 08:08:50;;;;;;;1.58;1.10;;;;;;;8.34;70.73;102583.94;6274185;28;20057;-80
2023/04/19 08:11:53;;;;;;;1.65;0.75;;;;;;;8.45;70.38;102577.69;6275053;28;20044;-80
2023/04/19 08:14:54;;;;;;;1.20;0.85;;;;;;;8.51;69.06;102564.53;6274792;28;20045;-79
2023/04/19 08:17:56;;;;;;;1.35;0.90;;;;;;;8.60;68.43;102574.88;6274716;28;20045;-79
2023/04/19 08:20:57;;;;;;;3.95;0.93;;;;;;;8.72;65.39;102563.28;6274598;28;20353;-79
2023/04/19 08:23:59;;;;;;;1.42;0.88;;;;;;;8.84;64.58;102563.97;6274621;28;20045;-80
2023/04/19 08:27:02;;;;;;;6.03;2.42;;;;;;;8.98;65.56;102560.25;6274324;28;20056;-79
2023/04/19 08:30:06;;;;;;;2.00;1.10;;;;;;;9.10;63.67;102550.41;6274720;28;20052;-79
2023/04/19 08:33:08;;;;;;;1.58;0.80;;;;;;;9.28;59.90;102559.69;6274522;28;20056;-81
2023/04/19 08:36:09;;;;;;;2.28;1.08;;;;;;;9.46;55.35;102550.59;6274106;28;20072;-79
2023/04/19 08:39:11;;;;;;;0.98;0.73;;;;;;;9.54;52.75;102556.56;6273796;28;20048;-78
2023/04/19 08:42:14;;;;;;;1.65;1.02;;;;;;;9.61;51.31;102559.94;6274445;28;20464;-79
2023/04/19 08:45:16;;;;;;;2.08;1.20;;;;;;;9.74;47.80;102553.53;6268591;28;20362;-79
2023/04/19 08:48:18;;;;;;;1.20;0.93;;;;;;;9.85;47.31;102548.91;6278775;28;20057;-79
2023/04/19 08:51:20;;;;;;;0.90;0.80;;;;;;;9.99;50.00;102539.84;6269340;28;20327;-79
2023/04/19 08:54:22;;;;;;;2.92;1.02;;;;;;;10.07;48.27;102536.16;6264777;28;20050;-79
2023/04/19 08:57:24;;;;;;;2.20;0.70;;;;;;;10.13;47.17;102536.06;6278849;28;20045;-79
2023/04/19 09:00:26;;;;;;;1.42;0.90;;;;;;;10.12;48.41;102536.06;6274350;28;20045;-80
2023/04/19 09:03:27;;;;;;;1.60;0.68;;;;;;;10.19;46.06;102529.78;6277109;28;20045;-80
2023/04/19 09:06:28;;;;;;;2.58;1.08;;;;;;;10.28;46.39;102529.59;6278214;28;20057;-79
2023/04/19 09:09:30;;;;;;;5.43;0.85;;;;;;;10.48;46.12;102523.00;6277974;28;20464;-80
2023/04/19 09:12:34;;;;;;;3.25;0.90;;;;;;;10.46;46.72;102517.78;6278514;28;20056;-80
2023/04/19 09:15:38;;;;;;;0.98;0.80;;;;;;;10.53;47.30;102521.13;6277863;28;20339;-80
2023/04/19 09:18:53;;;;;;;2.03;0.90;;;;;;;10.49;45.81;102525.63;6278339;28;20049;-79
2023/04/19 09:21:55;;;;;;;1.48;1.00;;;;;;;10.47;45.60;102511.63;6278173;28;20072;-79
2023/04/19 09:24:58;;;;;;;4.57;0.80;;;;;;;10.64;44.94;102505.97;6270002;28;20174;-78
2023/04/19 09:28:10;;;;;;;1.88;0.85;;;;;;;10.73;44.98;102489.94;6275712;28;20055;-78
2023/04/19 09:31:13;;;;;;;3.47;0.90;;;;;;;10.93;43.30;102495.53;6278441;28;20106;-79
2023/04/19 09:34:16;;;;;;;0.82;0.70;;;;;;;11.07;44.40;102492.53;6277327;28;20053;-79
2023/04/19 09:37:18;;;;;;;9.18;0.88;;;;;;;11.14;44.61;102490.59;6277571;28;20049;-80
2023/04/19 09:40:23;;;;;;;3.35;1.00;;;;;;;11.20;45.36;102477.25;6277654;28;20053;-79
2023/04/19 09:43:26;;;;;;;1.83;0.70;;;;;;;11.24;47.34;102470.16;6277765;28;20055;-79
2023/04/19 09:46:33;;;;;;;1.00;0.85;;;;;;;11.21;44.60;102475.50;6277402;28;20477;-79
2023/04/19 09:49:34;;;;;;;1.35;1.00;;;;;;;11.26;47.10;102463.06;6276880;28;20053;-78
2023/04/19 09:52:36;;;;;;;1.15;0.60;;;;;;;11.23;44.55;102457.91;6277431;28;20041;-79
2023/04/19 09:55:40;;;;;;;1.73;1.00;;;;;;;11.41;43.73;102454.75;6268898;28;20069;-79
2023/04/19 09:58:42;;;;;;;3.47;1.10;;;;;;;11.38;43.98;102446.91;6270242;28;20120;-80
2023/04/19 10:01:45;;;;;;;1.35;0.90;;;;;;;11.45;43.84;102443.22;6277307;28;20048;-79
2023/04/19 10:04:46;;;;;;;5.07;0.90;;;;;;;11.51;44.14;102436.91;6277151;28;20065;-79
2023/04/19 10:07:49;;;;;;;2.50;0.68;;;;;;;11.60;44.61;102423.44;6276519;28;20357;-78
2023/04/19 10:10:53;;;;;;;1.77;1.10;;;;;;;11.71;42.15;102431.88;6276825;28;20060;-78
2023/04/19 10:13:59;;;;;;;1.70;0.80;;;;;;;11.74;42.41;102423.03;6276832;28;20045;-79
2023/04/19 10:17:02;;;;;;;2.10;1.35;;;;;;;11.77;42.70;102407.13;6276936;28;20045;-78
2023/04/19 10:20:09;;;;;;;7.03;0.90;;;;;;;11.96;42.53;102410.94;6276683;28;20056;-78
2023/04/19 10:23:11;;;;;;;5.05;1.85;;;;;;;12.08;43.05;102404.38;6276794;28;20124;-80
2023/04/19 10:26:12;;;;;;;2.53;0.85;;;;;;;12.10;39.01;102403.41;6276397;28;20052;-80
2023/04/19 10:29:15;;;;;;;1.27;0.77;;;;;;;12.26;39.09;102397.63;6276654;28;20056;-79
2023/04/19 10:32:16;;;;;;;4.03;1.10;;;;;;;12.33;38.00;102386.84;6268591;28;20052;-79
2023/04/19 10:35:20;;;;;;;1.67;0.88;;;;;;;12.39;38.66;102397.16;6276557;28;20041;-80
2023/04/19 10:38:36;;;;;;;1.60;0.88;;;;;;;12.36;37.07;102392.00;6268996;28;20050;-80
2023/04/19 10:41:56;;;;;;;4.38;1.33;;;;;;;12.40;37.75;102374.31;6276466;28;20084;-79
2023/04/19 10:45:34;;;;;;;2.42;0.80;;;;;;;12.59;38.18;102354.28;6275961;28;20071;-80
2023/04/19 10:48:42;;;;;;;1.58;0.90;;;;;;;12.76;37.97;102351.00;6276055;28;20460;-79
2023/04/19 10:51:51;;;;;;;1.10;0.70;;;;;;;12.87;35.22;102343.56;6276065;28;20049;-80
2023/04/19 10:54:56;;;;;;;4.63;1.35;;;;;;;13.08;34.91;102348.94;6275764;28;20369;-79
2023/04/19 10:58:01;;;;;;;2.33;0.95;;;;;;;12.96;35.44;102352.94;6271249;28;20052;-79
2023/04/19 11:01:33;;;;;;;1.63;0.85;;;;;;;13.06;35.95;102338.47;6273205;28;20482;-79
2023/04/19 11:05:00;;;;;;;2.88;0.90;;;;;;;13.16;35.27;102344.25;6270175;28;20049;-79
2023/04/19 11:08:02;;;;;;;1.80;0.90;;;;;;;13.17;34.01;102331.00;6275023;28;20073;-80
2023/04/19 11:11:03;;;;;;;6.10;0.70;;;;;;;13.25;36.36;102327.22;6274933;28;20049;-79
2023/04/19 11:14:08;;;;;;;1.38;0.70;;;;;;;13.21;34.14;102337.84;6275448;28;20365;-80
2023/04/19 11:17:19;;;;;;;3.50;1.10;;;;;;;13.29;34.04;102324.41;6275249;28;20056;-78
2023/04/19 11:20:23;;;;;;;1.80;0.60;;;;;;;13.29;35.23;102318.25;6275843;28;20163;-79
2023/04/19 11:23:25;;;;;;;4.43;1.02;;;;;;;13.36;34.44;102330.31;6261540;28;20076;-79
2023/04/19 11:26:26;;;;;;;2.05;0.80;;;;;;;13.54;35.25;102336.66;6269267;28;20056;-80
2023/04/19 11:29:27;;;;;;;1.67;0.90;;;;;;;13.58;33.04;102317.06;6269785;28;20377;-80
2023/04/19 11:32:30;;;;;;;1.30;0.98;;;;;;;13.77;34.45;102306.63;6274862;28;20072;-79
2023/04/19 11:35:32;;;;;;;3.72;1.15;;;;;;;14.00;36.16;102303.03;6272845;28;20045;-78
2023/04/19 11:38:34;;;;;;;1.60;0.90;;;;;;;14.12;35.81;102297.19;6274316;28;20052;-79
2023/04/19 11:41:39;;;;;;;1.23;0.85;;;;;;;14.29;35.09;102288.53;6274707;28;20445;-78
2023/04/19 11:44:40;;;;;;;2.70;0.85;;;;;;;14.47;35.00;102291.22;6272432;28;20468;-79
2023/04/19 11:47:50;;;;;;;1.88;0.95;;;;;;;14.45;35.07;102290.44;6274310;28;20045;-78
2023/04/19 11:50:58;;;;;;;3.35;1.17;;;;;;;14.51;34.82;102286.69;6274723;28;20060;-79
2023/04/19 11:53:59;;;;;;;1.40;0.68;;;;;;;14.61;35.50;102279.19;6274382;28;20433;-78
2023/04/19 11:57:03;;;;;;;1.23;0.90;;;;;;;14.72;34.77;102279.56;6274379;28;20049;-79
2023/04/19 12:00:10;;;;;;;1.38;1.00;;;;;;;14.84;32.56;102272.81;6272972;28;20045;-78
2023/04/19 12:03:13;;;;;;;0.63;0.60;;;;;;;14.89;32.45;102269.03;6274485;28;20134;-80
2023/04/19 12:06:16;;;;;;;2.67;1.30;;;;;;;14.99;34.27;102272.13;6274377;28;20437;-76
2023/04/19 12:09:21;;;;;;;1.60;0.90;;;;;;;15.17;33.90;102276.53;6274003;28;20049;-78
2023/04/19 12:12:32;;;;;;;2.83;1.05;;;;;;;15.31;32.72;102275.00;6274389;28;20112;-77
2023/04/19 12:15:42;;;;;;;3.75;1.05;;;;;;;15.27;33.04;102268.16;6274237;28;20041;-78
2023/04/19 12:18:48;;;;;;;0.88;0.73;;;;;;;15.28;33.19;102261.91;6272978;28;20425;-80
2023/04/19 12:21:50;;;;;;;1.40;0.93;;;;;;;15.38;33.18;102265.81;6279303;28;20048;-78
2023/04/19 12:24:52;;;;;;;2.08;1.17;;;;;;;15.46;31.86;102264.50;6279086;28;20056;-79
2023/04/19 12:27:53;;;;;;;1.42;0.98;;;;;;;15.49;31.77;102271.47;6279195;28;20053;-79
2023/04/19 12:30:55;;;;;;;1.17;0.52;;;;;;;15.30;32.80;102262.66;6278844;28;20055;-79
2023/04/19 12:33:57;;;;;;;1.63;0.90;;;;;;;15.43;31.29;102262.00;6279144;28;20426;-80
2023/04/19 12:36:59;;;;;;;0.85;0.80;;;;;;;15.52;30.76;102244.78;6278487;28;20045;-78
2023/04/19 12:40:01;;;;;;;3.17;1.00;;;;;;;15.73;31.53;102243.75;6278316;28;20128;-79
2023/04/19 12:43:02;;;;;;;1.55;0.90;;;;;;;15.89;30.90;102242.94;6278579;28;20045;-79
2023/04/19 12:46:05;;;;;;;4.10;1.23;;;;;;;15.72;30.96;102246.47;6278365;28;20083;-80
2023/04/19 12:49:07;;;;;;;3.28;0.98;;;;;;;15.67;31.24;102245.84;6277488;28;20037;-81
2023/04/19 12:52:09;;;;;;;2.58;1.23;;;;;;;15.82;31.40;102246.88;6278179;28;20045;-80
2023/04/19 12:55:10;;;;;;;2.47;1.35;;;;;;;15.67;29.57;102241.41;6271321;28;20052;-79
2023/04/19 12:58:12;;;;;;;1.88;0.93;;;;;;;15.80;31.63;102227.50;6273053;28;20049;-79
2023/04/19 13:01:13;;;;;;;3.33;1.52;;;;;;;15.95;31.05;102221.44;6268777;28;20558;-80
2023/04/19 13:04:16;;;;;;;2.88;1.77;;;;;;;16.12;30.62;102223.16;6272609;28;20045;-80
2023/04/19 13:07:17;;;;;;;6.45;1.45;;;;;;;16.06;29.40;102212.91;6278348;28;20049;-79
2023/04/19 13:10:19;;;;;;;1.95;1.17;;;;;;;15.96;30.10;102212.53;6278367;28;20335;-80
2023/04/19 13:13:21;;;;;;;4.97;1.13;;;;;;;16.07;30.90;102210.16;6278130;28;20053;-80
2023/04/19 13:16:22;;;;;;;2.25;1.33;;;;;;;15.82;27.64;102218.56;6276776;28;20049;-80
2023/04/19 13:19:25;;;;;;;7.40;1.67;;;;;;;16.02;30.71;102209.53;6278168;28;20151;-81
2023/04/19 13:22:27;;;;;;;4.57;1.30;;;;;;;16.24;31.37;102210.13;6278050;28;20334;-80
2023/04/19 13:25:28;;;;;;;1.90;1.27;;;;;;;16.28;29.75;102207.31;6277997;28;20068;-80
2023/04/19 13:28:30;;;;;;;2.88;1.38;;;;;;;16.24;28.09;102188.91;6277960;28;20069;-80
2023/04/19 13:31:31;;;;;;;4.35;1.50;;;;;;;16.35;30.15;102195.41;6277918;28;20172;-80
2023/04/19 13:34:34;;;;;;;4.18;1.50;;;;;;;16.32;28.45;102198.25;6278460;28;20060;-81
2023/04/19 13:37:36;;;;;;;1.58;1.23;;;;;;;16.11;29.68;102197.59;6278302;28;20053;-81
2023/04/19 13:40:37;;;;;;;2.20;1.45;;;;;;;16.26;30.10;102177.34;6278005;28;20345;-81
2023/04/19 13:43:39;;;;;;;4.20;1.85;;;;;;;16.42;29.60;102189.69;6277925;28;20052;-81
2023/04/19 13:46:40;;;;;;;5.63;2.25;;;;;;;16.17;27.68;102190.19;6277745;28;20041;-84
2023/04/19 13:49:44;;;;;;;2.40;1.65;;;;;;;15.95;29.06;102177.22;6278088;28;20047;-83
2023/04/19 13:52:45;;;;;;;1.67;1.40;;;;;;;16.25;31.94;102181.78;6277931;28;20078;-82
2023/04/19 13:55:47;;;;;;;3.88;1.45;;;;;;;16.45;31.83;102180.72;6277527;28;20045;-81
2023/04/19 13:58:48;;;;;;;2.90;1.60;;;;;;;16.38;29.62;102174.03;6277545;28;20048;-82
2023/04/19 14:01:49;;;;;;;2.10;1.55;;;;;;;16.42;31.59;102173.78;6277821;28;20445;-82
2023/04/19 14:04:52;;;;;;;5.57;1.67;;;;;;;16.65;31.37;102167.19;6277223;28;20132;-82
2023/04/19 14:07:54;;;;;;;2.58;1.77;;;;;;;16.72;29.73;102160.63;6277224;28;20056;-82
2023/04/19 14:10:55;;;;;;;3.10;1.55;;;;;;;16.45;29.68;102168.31;6277307;28;20053;-84
2023/04/19 14:13:56;;;;;;;2.90;1.60;;;;;;;15.83;30.28;102163.75;6277406;28;20076;-81